Fort Wayne International Airport
KFWA : now visible

Airfield :











YOU CAN JOIN US ON...

 
LOGIN :

Register | Disclaimer

   EN    FR    IT 

 









Legend :    VFR   Marginal VFR   IFR   Intensive IFR   Very Intensive IFR
Visi :
Ceiling :
>= 8 km
>= 3000ft
5 to 8 km
1000 to 3000 ft
1500m to 5 km
500 to 1000 ft
800 to 1500m
200 to 500 ft
< 800m
< 200 ft
Symbols :   Thunderstorms  Fog  Heavy snow  Heavy precipitations  Wind > 20 kt






- Airport Elevation : 814 ft
- IATA code : FWA


KFWA - Fort Wayne International

CURRENT METAR :
  • 170054Z 20011KT 10SM FEW060 FEW250 30/18 A2994 RMK AO2 SLP132 T03000183

EXPIRED METARs :
  • 162354Z 21011KT 10SM FEW060 32/18 A2994 RMK AO2 SLP132 T03170178 10333 20306 55006
  • 162254Z 20012G18KT 10SM FEW065 FEW250 32/19 A2993 RMK AO2 SLP129 T03220189
  • 162154Z 21010KT 10SM FEW065 FEW250 33/18 A2994 RMK AO2 SLP131 T03280183
  • 162054Z 18010G17KT 10SM FEW060 FEW250 33/17 A2996 RMK AO2 SLP139 T03280172 56022

TAF KFWA
Valid from the 17 at 00:00 until the 18 at 00:00 UTC


162324Z 1700/1724 19009KT P6SM SCT070
FM171400 21011KT P6SM FEW040
KZAU FIR / North America



MET'MAP, your aeronautical weather chart ! - Copyright ORBIFLY December 2007 - Disclaimer

ORBIFLY MET'MAP TEAM :

Programming & Development : Alexandra Zaïnal
Original concept : Baudouin d'Aumeries
Technical & hardware support : Manuel Goepfert
Assistance : Marc-Olivier Méhu




SOURCES & CREDITS :

   NOAA       Earth
Advisory